aviador You're here:

LFRT Decoded Metar

ST.-BRIEUC ARMOR in FRANCE
Report Time2018-07-16 10:00:00
UTC Time2018-07-16 10:25:44
Flight Rules vfr VFR
Wind280° at 05 kt
W.Decomp.*RWY 24: 3.7 kt HW 3.3 kt RCW
W.Rank280° ranks 7
Current wind is below 280° avg. (8.5)
Visibility9999 m
Phenomena:N/A
Clouds:N/A
Expected CloudBase > 4,800 ft AGL from Temp-Dew spread
CeilingNone
Temp24°C (ISA +10)
Dew Point12°C (47% RH)
AAT22.8°C
QNH1015 hPa
Density Alt1,716 ft
Elevation446 ft
Report Wrong Elevation
Raw Report
LFRT 161000Z AUTO 28005KT 240V360 CAVOK 24/12 Q1015=

Extra information for LFRT:More info

Metar Taf Metar & Taf Last 4 Metars F.Rules Stats Wind Profile Meteogram Temp Stats Airport Information Weather charts Add Link Nearby VenuesMetar ALERT Operation Metar Decoded Social comments